Time;durP1;ratioP1;P1;durP2;ratioP2;P2;SDS_P1;SDS_P2;PMS_P1;PMS_P2;Temp;Humidity;BMP_temperature;BMP_pressure;BME280_temperature;BME280_humidity;BME280_pressure;Samples;Min_cycle;Max_cycle;Signal;HPM_P1;HPM_P2
2022/10/28 00:02:09;;;;;;;20.90;19.33;;;;;;;;;;5056753;28;20451;-80
2022/10/28 00:04:36;;;;;;;21.60;20.10;;;;;;;;;;5056434;28;20466;-80
2022/10/28 00:07:03;;;;;;;20.90;19.53;;;;;;;;;;5056952;28;20421;-79
2022/10/28 00:09:31;;;;;;;21.23;19.40;;;;;;;;;;5057813;28;20429;-79
2022/10/28 00:11:58;;;;;;;24.43;22.00;;;;;;;;;;5056588;28;20421;-79
2022/10/28 00:14:27;;;;;;;20.40;19.20;;;;;;;;;;5056405;28;20804;-81
2022/10/28 00:16:54;;;;;;;21.97;20.43;;;;;;;;;;5056221;28;20484;-81
2022/10/28 00:19:21;;;;;;;21.13;19.60;;;;;;;;;;5057284;28;20464;-80
2022/10/28 00:21:49;;;;;;;21.40;19.40;;;;;;;;;;5056291;28;20451;-80
2022/10/28 00:24:17;;;;;;;20.53;19.10;;;;;;;;;;5056852;28;20472;-81
2022/10/28 00:26:44;;;;;;;21.23;19.53;;;;;;;;;;5056812;28;20488;-79
2022/10/28 00:29:13;;;;;;;20.20;18.67;;;;;;;;;;5056897;28;20434;-79
2022/10/28 00:31:42;;;;;;;20.47;18.67;;;;;;;;;;5055997;28;20810;-79
2022/10/28 00:34:12;;;;;;;21.70;20.07;;;;;;;;;;5055911;28;20457;-80
2022/10/28 00:36:41;;;;;;;21.00;19.40;;;;;;;;;;5056297;28;20924;-80
2022/10/28 00:39:11;;;;;;;22.30;20.10;;;;;;;;;;5056244;28;20462;-79
2022/10/28 00:41:39;;;;;;;20.93;19.70;;;;;;;;;;5055550;28;20471;-79
2022/10/28 00:44:21;;;;;;;21.60;20.00;;;;;;;;;;5056250;28;20457;-80
2022/10/28 00:46:52;;;;;;;21.40;19.83;;;;;;;;;;5056129;28;20439;-80
2022/10/28 00:49:20;;;;;;;21.80;19.97;;;;;;;;;;5056456;28;20899;-79
2022/10/28 00:51:49;;;;;;;21.47;19.80;;;;;;;;;;5056244;28;20453;-79
2022/10/28 00:54:17;;;;;;;21.83;20.10;;;;;;;;;;5055591;28;20668;-80
2022/10/28 00:56:47;;;;;;;20.20;18.83;;;;;;;;;;5054867;28;20811;-80
2022/10/28 00:59:17;;;;;;;20.73;19.10;;;;;;;;;;5056346;28;20423;-80
2022/10/28 01:01:44;;;;;;;20.83;18.93;;;;;;;;;;5056452;28;20446;-79
2022/10/28 01:04:14;;;;;;;20.13;18.57;;;;;;;;;;5056106;28;20486;-80
2022/10/28 01:06:41;;;;;;;19.80;18.57;;;;;;;;;;5056665;28;20419;-81
2022/10/28 01:09:09;;;;;;;20.00;18.77;;;;;;;;;;5056816;28;20457;-79
2022/10/28 01:11:44;;;;;;;19.97;18.67;;;;;;;;;;5055485;28;20974;-80
2022/10/28 01:14:17;;;;;;;19.50;18.20;;;;;;;;;;5056225;28;20928;-79
2022/10/28 01:16:49;;;;;;;19.80;18.60;;;;;;;;;;5055893;28;20465;-79
2022/10/28 01:19:35;;;;;;;20.97;19.47;;;;;;;;;;5056497;28;20422;-79
2022/10/28 01:22:07;;;;;;;20.03;18.50;;;;;;;;;;5056089;28;20410;-79
2022/10/28 01:24:39;;;;;;;19.97;18.63;;;;;;;;;;5055929;28;20466;-79
2022/10/28 01:27:27;;;;;;;22.23;19.23;;;;;;;;;;5060111;28;20427;-80
2022/10/28 01:30:05;;;;;;;19.77;18.30;;;;;;;;;;5034540;28;20427;-81
2022/10/28 01:32:36;;;;;;;20.53;18.90;;;;;;;;;;5058921;28;20440;-79
2022/10/28 01:35:10;;;;;;;21.80;20.17;;;;;;;;;;5059859;28;20410;-79
2022/10/28 01:37:41;;;;;;;20.50;18.77;;;;;;;;;;5059826;28;20491;-79
2022/10/28 01:40:12;;;;;;;23.27;21.20;;;;;;;;;;5059491;28;20411;-80
2022/10/28 01:42:41;;;;;;;22.87;20.83;;;;;;;;;;5058876;28;20816;-80
2022/10/28 01:45:13;;;;;;;20.47;18.97;;;;;;;;;;5059873;28;20451;-81
2022/10/28 01:47:43;;;;;;;21.37;19.53;;;;;;;;;;5059629;28;20425;-79
2022/10/28 01:50:14;;;;;;;21.00;19.40;;;;;;;;;;5059387;28;20422;-80
2022/10/28 01:52:43;;;;;;;19.87;18.57;;;;;;;;;;5058672;28;20525;-80
2022/10/28 01:55:12;;;;;;;21.60;20.00;;;;;;;;;;5059191;28;20417;-79
2022/10/28 01:57:40;;;;;;;20.40;18.87;;;;;;;;;;5057926;28;20495;-79
2022/10/28 02:00:08;;;;;;;22.13;19.67;;;;;;;;;;5059068;28;20455;-80
2022/10/28 02:02:36;;;;;;;22.03;20.17;;;;;;;;;;5057600;28;20472;-80
2022/10/28 02:05:07;;;;;;;19.33;18.20;;;;;;;;;;5059005;28;20477;-78
2022/10/28 02:07:34;;;;;;;19.93;18.20;;;;;;;;;;5059111;28;20426;-79
2022/10/28 02:10:07;;;;;;;20.40;18.80;;;;;;;;;;5059149;28;20968;-79
2022/10/28 02:12:36;;;;;;;22.57;20.60;;;;;;;;;;5057604;28;20451;-79
2022/10/28 02:15:18;;;;;;;19.93;18.30;;;;;;;;;;5058460;28;20885;-80
2022/10/28 02:17:51;;;;;;;27.23;19.00;;;;;;;;;;5055541;28;21031;-79
2022/10/28 02:20:25;;;;;;;20.33;18.73;;;;;;;;;;5059288;28;20428;-80
2022/10/28 02:22:54;;;;;;;20.27;18.37;;;;;;;;;;5058007;28;20452;-79
2022/10/28 02:25:22;;;;;;;19.27;17.77;;;;;;;;;;5059473;28;20423;-79
2022/10/28 02:27:54;;;;;;;20.27;18.77;;;;;;;;;;5058449;28;20443;-80
2022/10/28 02:30:22;;;;;;;20.37;18.77;;;;;;;;;;5058343;28;20538;-81
2022/10/28 02:32:51;;;;;;;19.23;17.83;;;;;;;;;;5057958;28;20469;-80
2022/10/28 02:35:24;;;;;;;20.40;18.83;;;;;;;;;;5058804;28;20446;-80
2022/10/28 02:37:52;;;;;;;20.77;18.93;;;;;;;;;;5056994;28;20471;-78
2022/10/28 02:40:20;;;;;;;20.20;18.70;;;;;;;;;;5057500;28;20839;-80
2022/10/28 02:42:50;;;;;;;19.63;17.73;;;;;;;;;;5057542;28;20855;-81
2022/10/28 02:45:20;;;;;;;20.70;19.17;;;;;;;;;;5057951;28;21080;-79
2022/10/28 02:47:48;;;;;;;20.20;18.73;;;;;;;;;;5057737;28;20824;-79
2022/10/28 02:50:18;;;;;;;19.47;18.27;;;;;;;;;;5057888;28;20449;-79
2022/10/28 02:52:49;;;;;;;21.93;19.90;;;;;;;;;;5056780;28;20452;-79
2022/10/28 02:55:17;;;;;;;21.20;19.20;;;;;;;;;;5057987;28;20439;-79
2022/10/28 02:57:47;;;;;;;22.00;19.97;;;;;;;;;;5057845;28;20498;-79
2022/10/28 03:00:16;;;;;;;20.00;18.37;;;;;;;;;;5058152;28;20527;-79
2022/10/28 03:02:44;;;;;;;20.73;18.63;;;;;;;;;;5057234;28;20469;-79
2022/10/28 03:05:12;;;;;;;21.77;20.03;;;;;;;;;;5057029;28;20473;-79
2022/10/28 03:07:39;;;;;;;21.17;19.57;;;;;;;;;;5057264;28;20423;-79
2022/10/28 03:10:09;;;;;;;21.00;19.50;;;;;;;;;;5057558;28;20479;-79
2022/10/28 03:12:36;;;;;;;21.73;19.73;;;;;;;;;;5057361;28;20444;-79
2022/10/28 03:15:04;;;;;;;19.90;18.50;;;;;;;;;;5056401;28;20486;-79
2022/10/28 03:17:31;;;;;;;20.23;18.30;;;;;;;;;;5057350;28;20537;-80
2022/10/28 03:19:59;;;;;;;18.50;17.13;;;;;;;;;;5058067;28;20449;-79
2022/10/28 03:22:26;;;;;;;21.90;19.93;;;;;;;;;;5056992;28;20460;-80
2022/10/28 03:24:53;;;;;;;19.93;18.20;;;;;;;;;;5057586;28;20431;-80
2022/10/28 03:27:22;;;;;;;20.40;18.73;;;;;;;;;;5056877;28;20458;-80
2022/10/28 03:29:50;;;;;;;20.27;18.27;;;;;;;;;;5056859;28;20470;-80
2022/10/28 03:32:18;;;;;;;20.80;18.80;;;;;;;;;;5056922;28;20446;-80
2022/10/28 03:34:46;;;;;;;20.90;19.20;;;;;;;;;;5056759;28;20450;-80
2022/10/28 03:37:13;;;;;;;21.60;19.90;;;;;;;;;;5056118;28;20447;-79
2022/10/28 03:39:41;;;;;;;20.57;19.03;;;;;;;;;;5057149;28;20448;-80
2022/10/28 03:42:08;;;;;;;20.13;18.60;;;;;;;;;;5057172;28;20430;-80
2022/10/28 03:44:37;;;;;;;21.67;19.70;;;;;;;;;;5057021;28;20465;-79
2022/10/28 03:47:04;;;;;;;19.07;17.87;;;;;;;;;;5057249;28;20452;-80
2022/10/28 03:49:31;;;;;;;21.53;19.80;;;;;;;;;;5056396;28;20434;-80
2022/10/28 03:51:58;;;;;;;21.90;20.10;;;;;;;;;;5056154;28;20473;-79
2022/10/28 03:54:26;;;;;;;19.50;17.93;;;;;;;;;;5056477;28;20470;-80
2022/10/28 03:56:53;;;;;;;20.07;18.30;;;;;;;;;;5056952;28;20448;-79
2022/10/28 03:59:21;;;;;;;22.43;20.30;;;;;;;;;;5056587;28;20485;-79
2022/10/28 04:01:50;;;;;;;21.77;19.47;;;;;;;;;;5055290;28;20470;-79
2022/10/28 04:04:18;;;;;;;19.30;18.10;;;;;;;;;;5056664;28;20856;-79
2022/10/28 04:06:45;;;;;;;19.47;17.80;;;;;;;;;;5056782;28;20431;-79
2022/10/28 04:09:12;;;;;;;20.50;18.70;;;;;;;;;;5056675;28;20449;-79
2022/10/28 04:11:40;;;;;;;20.50;18.80;;;;;;;;;;5056709;28;20455;-79
2022/10/28 04:14:07;;;;;;;21.07;19.03;;;;;;;;;;5056054;28;20486;-80
2022/10/28 04:16:35;;;;;;;21.00;19.03;;;;;;;;;;5056017;28;20431;-80
2022/10/28 04:19:03;;;;;;;20.00;18.23;;;;;;;;;;5055608;28;20992;-79
2022/10/28 04:21:30;;;;;;;18.67;17.33;;;;;;;;;;5055887;28;20457;-80
2022/10/28 04:23:58;;;;;;;20.20;18.10;;;;;;;;;;5055960;28;20983;-80
2022/10/28 04:26:25;;;;;;;19.30;17.70;;;;;;;;;;5055899;28;20459;-80
2022/10/28 04:28:52;;;;;;;21.97;20.40;;;;;;;;;;5056457;28;20456;-79
2022/10/28 04:31:20;;;;;;;24.77;18.97;;;;;;;;;;5055113;28;20482;-80
2022/10/28 04:33:47;;;;;;;20.43;18.47;;;;;;;;;;5056616;28;20511;-79
2022/10/28 04:36:16;;;;;;;20.80;19.00;;;;;;;;;;5056514;28;20454;-80
2022/10/28 04:38:43;;;;;;;21.33;19.47;;;;;;;;;;5055317;28;20848;-79
2022/10/28 04:41:13;;;;;;;21.30;19.57;;;;;;;;;;5054881;28;20464;-79
2022/10/28 04:43:40;;;;;;;20.23;18.70;;;;;;;;;;5056348;28;20488;-80
2022/10/28 04:46:07;;;;;;;19.80;18.33;;;;;;;;;;5055946;28;20418;-79
2022/10/28 04:48:35;;;;;;;20.87;19.30;;;;;;;;;;5056866;28;20450;-80
2022/10/28 04:51:02;;;;;;;21.60;19.37;;;;;;;;;;5056247;28;20453;-80
2022/10/28 04:53:31;;;;;;;20.83;18.73;;;;;;;;;;5056002;28;20552;-80
2022/10/28 04:55:59;;;;;;;20.13;18.43;;;;;;;;;;5055571;28;20453;-80
2022/10/28 04:58:27;;;;;;;20.57;18.87;;;;;;;;;;5055396;28;20542;-80
2022/10/28 05:00:55;;;;;;;20.67;19.03;;;;;;;;;;5059167;28;20461;-80
2022/10/28 05:03:22;;;;;;;20.83;19.20;;;;;;;;;;5060030;28;20473;-81
2022/10/28 05:05:49;;;;;;;21.37;20.00;;;;;;;;;;5059432;28;20481;-80
2022/10/28 05:08:17;;;;;;;20.73;19.23;;;;;;;;;;5059518;28;20452;-79
2022/10/28 05:10:48;;;;;;;21.63;19.93;;;;;;;;;;5059888;28;20449;-79
2022/10/28 05:13:16;;;;;;;22.27;20.47;;;;;;;;;;5059023;28;20983;-81
2022/10/28 05:15:43;;;;;;;21.67;19.83;;;;;;;;;;5059706;28;20813;-81
2022/10/28 05:18:10;;;;;;;22.50;20.27;;;;;;;;;;5059547;28;20457;-79
2022/10/28 05:20:38;;;;;;;21.43;19.73;;;;;;;;;;5060023;28;20816;-80
2022/10/28 05:23:05;;;;;;;22.83;20.70;;;;;;;;;;5058081;28;20470;-80
2022/10/28 05:25:33;;;;;;;21.77;20.27;;;;;;;;;;5059572;28;20862;-80
2022/10/28 05:28:02;;;;;;;22.07;19.80;;;;;;;;;;5059734;28;20450;-79
2022/10/28 05:30:29;;;;;;;20.17;19.03;;;;;;;;;;5059562;28;20503;-80
2022/10/28 05:33:01;;;;;;;21.93;19.97;;;;;;;;;;5058926;28;20488;-80
2022/10/28 05:35:28;;;;;;;21.77;20.00;;;;;;;;;;5059646;28;20538;-79
2022/10/28 05:37:56;;;;;;;21.70;20.03;;;;;;;;;;5059736;28;20437;-79
2022/10/28 05:40:24;;;;;;;21.13;19.20;;;;;;;;;;5059230;28;20457;-80
2022/10/28 05:42:51;;;;;;;21.63;20.13;;;;;;;;;;5058512;28;20477;-80
2022/10/28 05:45:20;;;;;;;21.13;19.53;;;;;;;;;;5059463;28;20443;-80
2022/10/28 05:47:49;;;;;;;22.10;20.70;;;;;;;;;;5059183;28;20450;-81
2022/10/28 05:50:18;;;;;;;26.20;23.90;;;;;;;;;;5059144;28;20452;-79
2022/10/28 05:52:46;;;;;;;22.77;20.97;;;;;;;;;;5058167;28;20475;-80
2022/10/28 05:55:14;;;;;;;23.20;20.97;;;;;;;;;;5058621;28;20506;-79
2022/10/28 05:57:41;;;;;;;24.53;19.80;;;;;;;;;;5059358;28;20431;-80
2022/10/28 06:00:09;;;;;;;21.60;19.60;;;;;;;;;;5059233;28;20590;-80
2022/10/28 06:02:38;;;;;;;22.90;20.93;;;;;;;;;;5058445;28;20463;-80
2022/10/28 06:05:06;;;;;;;20.83;19.30;;;;;;;;;;5058329;28;20537;-80
2022/10/28 06:07:34;;;;;;;22.13;20.23;;;;;;;;;;5059050;28;20411;-81
2022/10/28 06:10:01;;;;;;;21.00;19.70;;;;;;;;;;5058921;28;20422;-80
2022/10/28 06:12:29;;;;;;;21.93;20.13;;;;;;;;;;5057757;28;20950;-81
2022/10/28 06:14:57;;;;;;;21.93;20.40;;;;;;;;;;5059069;28;20457;-81
2022/10/28 06:17:24;;;;;;;22.27;20.07;;;;;;;;;;5058221;28;20459;-76
2022/10/28 06:19:53;;;;;;;21.60;19.80;;;;;;;;;;5054927;28;21003;-76
2022/10/28 06:22:20;;;;;;;22.27;20.10;;;;;;;;;;5054437;28;20450;-77
2022/10/28 06:24:48;;;;;;;21.20;19.67;;;;;;;;;;5053597;28;20449;-77
2022/10/28 06:27:15;;;;;;;22.10;20.13;;;;;;;;;;5054851;28;20874;-76
2022/10/28 06:29:43;;;;;;;20.60;18.90;;;;;;;;;;5055007;28;20417;-76
2022/10/28 06:32:11;;;;;;;21.10;19.40;;;;;;;;;;5053960;28;20434;-76
2022/10/28 06:34:38;;;;;;;22.93;20.83;;;;;;;;;;5054462;28;21029;-76
2022/10/28 06:37:09;;;;;;;21.43;19.50;;;;;;;;;;5054643;28;20478;-76
2022/10/28 06:39:38;;;;;;;22.47;20.63;;;;;;;;;;5054811;28;20469;-76
2022/10/28 06:42:06;;;;;;;21.43;19.53;;;;;;;;;;5054386;28;20495;-76
2022/10/28 06:44:33;;;;;;;20.57;19.10;;;;;;;;;;5053908;28;20487;-76
2022/10/28 06:47:00;;;;;;;21.30;19.80;;;;;;;;;;5054563;28;20456;-76
2022/10/28 06:49:28;;;;;;;23.00;21.10;;;;;;;;;;5054687;28;20438;-76
2022/10/28 06:51:56;;;;;;;24.07;20.60;;;;;;;;;;5054203;28;20488;-78
2022/10/28 06:54:25;;;;;;;20.93;19.47;;;;;;;;;;5054572;28;20482;-77
2022/10/28 06:56:52;;;;;;;22.30;20.57;;;;;;;;;;5054451;28;20450;-76
2022/10/28 06:59:19;;;;;;;21.50;19.93;;;;;;;;;;5054221;28;20458;-76
2022/10/28 07:01:47;;;;;;;21.70;20.40;;;;;;;;;;5055622;28;20439;-84
2022/10/28 07:04:14;;;;;;;22.53;21.00;;;;;;;;;;5035480;28;20481;-76
2022/10/28 07:06:41;;;;;;;26.73;21.37;;;;;;;;;;5040422;28;20835;-83
2022/10/28 07:09:10;;;;;;;22.30;20.63;;;;;;;;;;5041827;28;21048;-81
2022/10/28 07:11:39;;;;;;;24.77;22.67;;;;;;;;;;5041121;28;20447;-82
2022/10/28 07:14:06;;;;;;;24.17;21.40;;;;;;;;;;5040717;28;20458;-84
2022/10/28 07:16:34;;;;;;;21.93;20.43;;;;;;;;;;5041947;28;20533;-83
2022/10/28 07:19:01;;;;;;;23.67;21.57;;;;;;;;;;5041260;28;20482;-84
2022/10/28 07:21:28;;;;;;;22.40;20.60;;;;;;;;;;5040073;28;20450;-79
2022/10/28 07:23:56;;;;;;;23.30;21.60;;;;;;;;;;5034839;28;21000;-78
2022/10/28 07:26:24;;;;;;;22.17;20.37;;;;;;;;;;5034463;28;20484;-77
2022/10/28 07:28:53;;;;;;;21.87;20.37;;;;;;;;;;5044562;28;20459;-85
2022/10/28 07:31:20;;;;;;;22.10;20.40;;;;;;;;;;5055861;28;20436;-78
2022/10/28 07:33:51;;;;;;;22.17;20.47;;;;;;;;;;5054253;28;21023;-78
2022/10/28 07:36:19;;;;;;;22.53;20.60;;;;;;;;;;5055397;28;20500;-78
2022/10/28 07:38:50;;;;;;;21.00;19.70;;;;;;;;;;5055609;28;20515;-78
2022/10/28 07:41:18;;;;;;;22.10;20.37;;;;;;;;;;5054704;28;20491;-79
2022/10/28 07:43:45;;;;;;;23.47;21.07;;;;;;;;;;5058167;28;20441;-78
2022/10/28 07:46:14;;;;;;;22.83;20.83;;;;;;;;;;5056463;28;20478;-78
2022/10/28 07:48:41;;;;;;;21.87;20.17;;;;;;;;;;5056056;28;20833;-79
2022/10/28 07:51:09;;;;;;;21.47;19.83;;;;;;;;;;5059557;28;20471;-78
2022/10/28 07:53:36;;;;;;;22.20;20.43;;;;;;;;;;5056253;28;20471;-79
2022/10/28 07:56:05;;;;;;;21.43;19.73;;;;;;;;;;5056420;28;20449;-78
2022/10/28 07:58:33;;;;;;;21.63;19.87;;;;;;;;;;5052784;28;20551;-77
2022/10/28 08:01:03;;;;;;;21.37;19.73;;;;;;;;;;5053012;28;20451;-77
2022/10/28 08:03:31;;;;;;;20.63;19.03;;;;;;;;;;5053891;28;20992;-77
2022/10/28 08:06:02;;;;;;;20.93;19.17;;;;;;;;;;5052842;28;20916;-77
2022/10/28 08:08:29;;;;;;;20.93;19.43;;;;;;;;;;5052449;28;20476;-78
2022/10/28 08:10:57;;;;;;;21.00;19.70;;;;;;;;;;5052517;28;20489;-77
2022/10/28 08:13:24;;;;;;;20.13;18.63;;;;;;;;;;5052759;28;20477;-77
2022/10/28 08:15:55;;;;;;;20.80;19.30;;;;;;;;;;5052873;28;20950;-77
2022/10/28 08:18:22;;;;;;;19.57;18.23;;;;;;;;;;5052866;28;20430;-76
2022/10/28 08:20:51;;;;;;;19.73;18.33;;;;;;;;;;5052296;28;20504;-77
2022/10/28 08:23:18;;;;;;;20.30;18.70;;;;;;;;;;5052337;28;21129;-76
2022/10/28 08:25:49;;;;;;;21.57;19.87;;;;;;;;;;5053029;28;20463;-77
2022/10/28 08:28:17;;;;;;;20.53;18.93;;;;;;;;;;5052946;28;20459;-77
2022/10/28 08:30:44;;;;;;;21.97;20.27;;;;;;;;;;5052171;28;20479;-77
2022/10/28 08:33:12;;;;;;;20.60;18.93;;;;;;;;;;5052258;28;20780;-77
2022/10/28 08:35:39;;;;;;;20.00;18.40;;;;;;;;;;5052599;28;20434;-76
2022/10/28 08:38:08;;;;;;;21.20;19.50;;;;;;;;;;5052609;28;20459;-77
2022/10/28 08:40:40;;;;;;;23.57;19.23;;;;;;;;;;5052707;28;20452;-76
2022/10/28 08:43:13;;;;;;;19.83;18.43;;;;;;;;;;5051582;28;20849;-77
2022/10/28 08:45:44;;;;;;;20.63;19.00;;;;;;;;;;5052738;28;20438;-78
2022/10/28 08:48:16;;;;;;;19.33;17.93;;;;;;;;;;5052427;28;20897;-77
2022/10/28 08:50:46;;;;;;;21.43;19.33;;;;;;;;;;5052854;28;20491;-76
2022/10/28 08:53:17;;;;;;;20.80;19.30;;;;;;;;;;5051803;28;20458;-76
2022/10/28 08:55:46;;;;;;;19.43;17.67;;;;;;;;;;5052168;28;20472;-77
2022/10/28 08:58:17;;;;;;;19.53;17.93;;;;;;;;;;5052448;28;20489;-76
2022/10/28 09:00:46;;;;;;;22.70;19.00;;;;;;;;;;5052555;28;20480;-79
2022/10/28 09:03:19;;;;;;;20.57;18.77;;;;;;;;;;5052111;28;20469;-77
2022/10/28 09:05:48;;;;;;;22.27;20.00;;;;;;;;;;5051906;28;20448;-76
2022/10/28 09:08:20;;;;;;;20.67;19.07;;;;;;;;;;5052487;28;20463;-77
2022/10/28 09:10:53;;;;;;;20.63;19.03;;;;;;;;;;5052569;28;20412;-77
2022/10/28 09:13:25;;;;;;;21.87;19.60;;;;;;;;;;5052336;28;20469;-76
2022/10/28 09:15:55;;;;;;;20.67;19.33;;;;;;;;;;5052130;28;20790;-77
2022/10/28 09:18:26;;;;;;;21.60;20.00;;;;;;;;;;5052411;28;20455;-76
2022/10/28 09:20:55;;;;;;;21.30;19.33;;;;;;;;;;5052290;28;20469;-78
2022/10/28 09:23:25;;;;;;;21.60;19.60;;;;;;;;;;5051983;28;20477;-76
2022/10/28 09:26:00;;;;;;;20.50;18.93;;;;;;;;;;5052191;28;20458;-77
2022/10/28 09:28:37;;;;;;;20.97;19.43;;;;;;;;;;5052920;28;20416;-81
2022/10/28 09:31:08;;;;;;;24.87;22.60;;;;;;;;;;5052075;28;20441;-78
2022/10/28 09:33:41;;;;;;;21.30;19.60;;;;;;;;;;5051530;28;20485;-76
2022/10/28 09:36:12;;;;;;;21.90;19.83;;;;;;;;;;5052014;28;20404;-77
2022/10/28 09:38:40;;;;;;;19.37;17.93;;;;;;;;;;5052239;28;20408;-77
2022/10/28 09:41:11;;;;;;;21.30;19.80;;;;;;;;;;5051670;28;20464;-77
2022/10/28 09:43:43;;;;;;;21.30;19.90;;;;;;;;;;5051995;28;20466;-78
2022/10/28 09:46:13;;;;;;;21.10;19.50;;;;;;;;;;5053248;28;20438;-77
2022/10/28 09:48:41;;;;;;;21.00;19.17;;;;;;;;;;5055842;28;20461;-78
2022/10/28 09:51:16;;;;;;;22.67;20.97;;;;;;;;;;5054952;28;20417;-77
2022/10/28 09:53:48;;;;;;;21.83;19.03;;;;;;;;;;5055374;28;20823;-77
2022/10/28 09:56:16;;;;;;;21.47;19.70;;;;;;;;;;5055846;28;20438;-76
2022/10/28 09:58:46;;;;;;;22.80;20.03;;;;;;;;;;5055812;28;20438;-77
2022/10/28 10:01:13;;;;;;;23.77;19.97;;;;;;;;;;5054832;28;20519;-78
2022/10/28 10:03:41;;;;;;;21.63;19.77;;;;;;;;;;5054981;28;20473;-76
2022/10/28 10:06:12;;;;;;;21.23;19.47;;;;;;;;;;5055773;28;20437;-79
2022/10/28 10:08:40;;;;;;;21.13;19.53;;;;;;;;;;5054714;28;20435;-77
2022/10/28 10:11:14;;;;;;;21.70;19.90;;;;;;;;;;5055027;28;20457;-76
2022/10/28 10:13:43;;;;;;;21.00;19.30;;;;;;;;;;5055059;28;20467;-77
2022/10/28 10:16:14;;;;;;;20.27;18.87;;;;;;;;;;5054846;28;20478;-77
2022/10/28 10:18:45;;;;;;;20.97;19.33;;;;;;;;;;5055077;28;20938;-76
2022/10/28 10:21:13;;;;;;;23.30;21.20;;;;;;;;;;5054960;28;20536;-77
2022/10/28 10:23:41;;;;;;;22.50;20.60;;;;;;;;;;5056888;28;20489;-86
2022/10/28 10:26:10;;;;;;;21.43;19.57;;;;;;;;;;5063705;28;20485;-85
2022/10/28 10:28:41;;;;;;;20.50;18.97;;;;;;;;;;5063426;28;20427;-85
2022/10/28 10:31:09;;;;;;;26.60;22.23;;;;;;;;;;5056665;28;20515;-75
2022/10/28 10:33:37;;;;;;;22.73;20.70;;;;;;;;;;5054740;28;20465;-76
2022/10/28 10:36:05;;;;;;;22.07;20.27;;;;;;;;;;5054678;28;20457;-76
2022/10/28 10:38:33;;;;;;;21.77;19.70;;;;;;;;;;5054746;28;20442;-76
2022/10/28 10:41:00;;;;;;;23.33;21.00;;;;;;;;;;5054046;28;20456;-76
2022/10/28 10:43:32;;;;;;;21.87;20.23;;;;;;;;;;5053903;28;20515;-76
2022/10/28 10:46:01;;;;;;;23.43;21.20;;;;;;;;;;5054418;28;20918;-76
2022/10/28 10:48:28;;;;;;;22.77;20.60;;;;;;;;;;5054739;28;20432;-75
2022/10/28 10:50:56;;;;;;;21.87;20.30;;;;;;;;;;5053785;28;20445;-76
2022/10/28 10:53:25;;;;;;;22.30;19.87;;;;;;;;;;5053808;28;20534;-76
2022/10/28 10:55:53;;;;;;;22.17;20.47;;;;;;;;;;5054302;28;20810;-76
2022/10/28 10:58:22;;;;;;;22.30;20.57;;;;;;;;;;5053804;28;20413;-75
2022/10/28 11:00:51;;;;;;;26.83;19.70;;;;;;;;;;5054390;28;20544;-76
2022/10/28 11:03:21;;;;;;;22.90;21.00;;;;;;;;;;5053761;28;20466;-75
2022/10/28 11:05:50;;;;;;;22.10;20.10;;;;;;;;;;5054050;28;20949;-75
2022/10/28 11:08:26;;;;;;;23.10;20.70;;;;;;;;;;5053530;28;20441;-76
2022/10/28 11:11:03;;;;;;;23.83;21.33;;;;;;;;;;5053656;28;20902;-75
2022/10/28 11:13:31;;;;;;;22.00;20.30;;;;;;;;;;5053728;28;20484;-75
2022/10/28 11:16:04;;;;;;;23.03;20.93;;;;;;;;;;5053708;28;20460;-76
2022/10/28 11:18:40;;;;;;;22.27;20.20;;;;;;;;;;5054052;28;20775;-76
2022/10/28 11:21:11;;;;;;;25.03;22.43;;;;;;;;;;5052977;28;20525;-76
2022/10/28 11:23:46;;;;;;;22.70;20.80;;;;;;;;;;5053797;28;20471;-74
2022/10/28 11:26:14;;;;;;;22.97;20.60;;;;;;;;;;5052855;28;20461;-75
2022/10/28 11:28:59;;;;;;;21.70;20.10;;;;;;;;;;5053671;28;20429;-76
2022/10/28 11:31:39;;;;;;;23.77;20.87;;;;;;;;;;5051916;28;20466;-75
2022/10/28 11:34:14;;;;;;;23.30;20.80;;;;;;;;;;5053849;28;20796;-76
2022/10/28 11:36:46;;;;;;;21.70;20.03;;;;;;;;;;5053733;28;20424;-75
2022/10/28 11:39:19;;;;;;;22.33;20.53;;;;;;;;;;5053610;28;20402;-76
2022/10/28 11:41:53;;;;;;;23.90;21.60;;;;;;;;;;5052432;28;20494;-76
2022/10/28 11:44:26;;;;;;;24.43;21.77;;;;;;;;;;5053222;28;20449;-75
2022/10/28 11:46:59;;;;;;;23.00;20.73;;;;;;;;;;5052939;28;20420;-76
2022/10/28 11:49:35;;;;;;;23.83;21.83;;;;;;;;;;5053595;28;20414;-75
2022/10/28 11:52:08;;;;;;;22.33;20.63;;;;;;;;;;5053024;28;20426;-75
2022/10/28 11:54:42;;;;;;;23.83;21.43;;;;;;;;;;5052534;28;20461;-75
2022/10/28 11:57:10;;;;;;;23.20;21.10;;;;;;;;;;5053060;28;20892;-74
2022/10/28 11:59:56;;;;;;;23.03;20.97;;;;;;;;;;5052925;28;20436;-76
2022/10/28 12:02:33;;;;;;;23.13;21.10;;;;;;;;;;5052346;28;20435;-76
2022/10/28 12:05:03;;;;;;;23.40;21.60;;;;;;;;;;5053051;28;20443;-75
2022/10/28 12:07:46;;;;;;;24.13;21.83;;;;;;;;;;5052896;28;20426;-75
2022/10/28 12:10:18;;;;;;;21.67;20.03;;;;;;;;;;5052429;28;20413;-75
2022/10/28 12:12:50;;;;;;;23.13;20.90;;;;;;;;;;5052517;28;20479;-76
2022/10/28 12:15:21;;;;;;;23.80;21.57;;;;;;;;;;5052513;28;20428;-76
2022/10/28 12:17:54;;;;;;;23.97;22.13;;;;;;;;;;5052803;28;20437;-76
2022/10/28 12:20:24;;;;;;;24.47;22.17;;;;;;;;;;5052458;28;20446;-75
2022/10/28 12:22:54;;;;;;;23.40;21.40;;;;;;;;;;5051387;28;20475;-75
2022/10/28 12:25:23;;;;;;;23.90;21.80;;;;;;;;;;5052474;28;20403;-74
2022/10/28 12:27:52;;;;;;;23.10;21.27;;;;;;;;;;5053024;28;20787;-75
2022/10/28 12:30:21;;;;;;;23.50;21.43;;;;;;;;;;5052998;28;20429;-75
2022/10/28 12:32:52;;;;;;;24.00;21.87;;;;;;;;;;5051465;28;21007;-76
2022/10/28 12:35:22;;;;;;;23.13;21.03;;;;;;;;;;5052967;28;20771;-75
2022/10/28 12:37:52;;;;;;;23.30;21.50;;;;;;;;;;5052351;28;20493;-76
2022/10/28 12:40:20;;;;;;;22.20;20.50;;;;;;;;;;5052365;28;20985;-75
2022/10/28 12:42:51;;;;;;;22.53;20.53;;;;;;;;;;5051966;28;20532;-75
2022/10/28 12:45:20;;;;;;;23.50;21.50;;;;;;;;;;5052488;28;20454;-75
2022/10/28 12:47:51;;;;;;;23.43;21.70;;;;;;;;;;5052359;28;20481;-75
2022/10/28 12:50:26;;;;;;;22.97;21.13;;;;;;;;;;5052769;28;20434;-75
2022/10/28 12:52:58;;;;;;;23.50;21.10;;;;;;;;;;5051614;28;20489;-75
2022/10/28 12:55:29;;;;;;;23.83;21.63;;;;;;;;;;5052668;28;20435;-75
2022/10/28 12:58:00;;;;;;;22.70;20.77;;;;;;;;;;5052581;28;20454;-76
2022/10/28 13:00:28;;;;;;;22.17;20.27;;;;;;;;;;5052336;28;20970;-75
2022/10/28 13:02:59;;;;;;;26.93;21.50;;;;;;;;;;5051988;28;20469;-76
2022/10/28 13:05:30;;;;;;;22.50;20.60;;;;;;;;;;5051774;28;20951;-76
2022/10/28 13:08:10;;;;;;;24.03;20.87;;;;;;;;;;5052504;28;20521;-75
2022/10/28 13:10:41;;;;;;;25.73;21.13;;;;;;;;;;5052253;28;20430;-75
2022/10/28 13:13:15;;;;;;;23.30;21.30;;;;;;;;;;5051879;28;20467;-75
2022/10/28 13:15:49;;;;;;;22.97;20.93;;;;;;;;;;5051602;28;20472;-76
2022/10/28 13:18:32;;;;;;;23.83;21.83;;;;;;;;;;5052081;28;20435;-75
2022/10/28 13:21:05;;;;;;;23.17;21.13;;;;;;;;;;5051449;28;21080;-78
2022/10/28 13:23:36;;;;;;;24.27;22.20;;;;;;;;;;5057354;28;20470;-75
2022/10/28 13:26:08;;;;;;;23.03;21.03;;;;;;;;;;5055331;28;20836;-77
2022/10/28 13:28:37;;;;;;;23.50;21.40;;;;;;;;;;5058940;28;20418;-77
2022/10/28 13:31:05;;;;;;;29.53;26.53;;;;;;;;;;5060716;28;20454;-82
2022/10/28 13:33:34;;;;;;;24.70;22.40;;;;;;;;;;5063394;28;20464;-85
2022/10/28 13:36:11;;;;;;;25.77;23.17;;;;;;;;;;5062187;28;20466;-80
2022/10/28 13:38:39;;;;;;;23.63;21.67;;;;;;;;;;5064014;28;20453;-83
2022/10/28 13:41:24;;;;;;;30.27;25.63;;;;;;;;;;5059581;28;20482;-76
2022/10/28 13:43:59;;;;;;;25.93;23.30;;;;;;;;;;5059131;28;20972;-81
2022/10/28 13:46:45;;;;;;;23.60;21.70;;;;;;;;;;5060213;28;20437;-85
2022/10/28 13:49:24;;;;;;;24.33;21.97;;;;;;;;;;5060021;28;20458;-80
2022/10/28 13:52:00;;;;;;;30.90;23.67;;;;;;;;;;5060741;28;20485;-78
2022/10/28 13:54:28;;;;;;;23.73;21.83;;;;;;;;;;5058680;28;20447;-76
2022/10/28 13:56:55;;;;;;;23.20;21.30;;;;;;;;;;5061546;28;20446;-80
2022/10/28 13:59:25;;;;;;;24.87;22.50;;;;;;;;;;5062314;28;20437;-83
2022/10/28 14:01:56;;;;;;;25.23;22.80;;;;;;;;;;5058397;28;20449;-78
2022/10/28 14:04:26;;;;;;;25.57;23.37;;;;;;;;;;5057270;28;20465;-76
2022/10/28 14:07:20;;;;;;;25.13;22.60;;;;;;;;;;5055578;28;20453;-75
2022/10/28 14:09:51;;;;;;;24.47;22.43;;;;;;;;;;5019898;28;20458;-75
2022/10/28 14:12:22;;;;;;;23.53;21.47;;;;;;;;;;5054747;28;20899;-76
2022/10/28 14:14:52;;;;;;;22.10;20.30;;;;;;;;;;5054761;28;20949;-76
2022/10/28 14:17:21;;;;;;;24.50;22.30;;;;;;;;;;5054966;28;21037;-75
2022/10/28 14:19:49;;;;;;;23.77;21.90;;;;;;;;;;5055505;28;20455;-76
2022/10/28 14:22:27;;;;;;;23.50;21.60;;;;;;;;;;5054611;28;20836;-75
2022/10/28 14:24:55;;;;;;;24.00;21.90;;;;;;;;;;5054866;28;20435;-75
2022/10/28 14:27:41;;;;;;;25.83;21.97;;;;;;;;;;5054828;28;20452;-75
2022/10/28 14:30:13;;;;;;;24.87;22.77;;;;;;;;;;5055066;28;20824;-75
2022/10/28 14:32:43;;;;;;;26.13;23.50;;;;;;;;;;5053045;28;20481;-75